createdAt,value
2023-04-24T00:00:58.410Z,92.05
2023-04-24T00:03:29.059Z,91.49
2023-04-24T00:05:57.348Z,91.99
2023-04-24T00:08:25.300Z,91.48
2023-04-24T00:10:53.730Z,91.63
2023-04-24T00:13:21.684Z,91.13
2023-04-24T00:15:51.027Z,91.23
2023-04-24T00:18:19.380Z,91.08
2023-04-24T00:20:47.443Z,90.94
2023-04-24T00:23:15.539Z,90.74
2023-04-24T00:25:43.430Z,90.91
2023-04-24T00:28:11.419Z,91.48
2023-04-24T00:30:39.463Z,91.95
2023-04-24T00:33:08.792Z,91.16
2023-04-24T00:35:36.734Z,91.26
2023-04-24T00:38:04.764Z,91.10
2023-04-24T00:40:32.709Z,91.23
2023-04-24T00:43:00.697Z,91.43
2023-04-24T00:45:28.739Z,90.93
2023-04-24T00:47:56.868Z,91.10
2023-04-24T00:50:26.413Z,91.25
2023-04-24T00:52:54.795Z,90.54
2023-04-24T00:55:22.924Z,91.12
2023-04-24T00:57:51.850Z,90.77
2023-04-24T01:00:20.608Z,90.60
2023-04-24T01:02:49.702Z,91.34
2023-04-24T01:05:18.363Z,90.38
2023-04-24T01:07:50.084Z,90.98
2023-04-24T01:10:19.197Z,91.40
2023-04-24T01:12:48.249Z,91.88
2023-04-24T01:15:16.532Z,92.32
2023-04-24T01:17:44.481Z,92.43
2023-04-24T01:20:12.826Z,93.07
2023-04-24T01:22:44.259Z,92.41
2023-04-24T01:25:12.265Z,93.55
2023-04-24T01:27:40.189Z,93.59
2023-04-24T01:30:09.624Z,92.81
2023-04-24T01:32:38.492Z,92.57
2023-04-24T01:35:07.913Z,92.41
2023-04-24T01:37:38.186Z,92.37
2023-04-24T01:40:09.453Z,92.42
2023-04-24T01:42:37.766Z,92.50
2023-04-24T01:45:07.261Z,93.24
2023-04-24T01:47:35.267Z,93.44
2023-04-24T01:50:03.295Z,93.58
2023-04-24T01:52:32.304Z,93.05
2023-04-24T01:55:02.035Z,92.78
2023-04-24T01:57:32.455Z,93.32
2023-04-24T02:00:00.602Z,93.29
2023-04-24T02:02:31.105Z,93.16
2023-04-24T02:04:59.243Z,92.83
2023-04-24T02:07:27.247Z,93.46
2023-04-24T02:09:56.474Z,93.42
2023-04-24T02:12:24.411Z,92.77
2023-04-24T02:14:54.560Z,92.23
2023-04-24T02:17:22.776Z,91.85
2023-04-24T02:19:50.937Z,91.68
2023-04-24T02:22:18.836Z,91.80
2023-04-24T02:24:46.797Z,92.61
2023-04-24T02:27:17.330Z,92.27
2023-04-24T02:29:46.063Z,91.74
2023-04-24T02:32:16.812Z,91.95
2023-04-24T02:34:45.358Z,92.69
2023-04-24T02:37:14.189Z,92.55
2023-04-24T02:39:42.235Z,93.11
2023-04-24T02:42:10.820Z,93.41
2023-04-24T02:44:38.849Z,93.79
2023-04-24T02:47:06.802Z,92.83
2023-04-24T02:49:36.170Z,92.65
2023-04-24T02:52:04.138Z,93.04
2023-04-24T02:54:32.127Z,94.53
2023-04-24T02:57:00.044Z,95.17
2023-04-24T02:59:29.892Z,95.40
2023-04-24T03:01:57.845Z,99.36
2023-04-24T03:04:26.092Z,100.00
2023-04-24T03:06:55.796Z,99.79
2023-04-24T03:09:23.901Z,98.11
2023-04-24T03:11:52.079Z,97.25
2023-04-24T03:14:20.190Z,97.44
2023-04-24T03:16:48.242Z,97.04
2023-04-24T03:19:16.326Z,96.65
2023-04-24T03:21:57.261Z,97.55
2023-04-24T03:24:25.978Z,96.66
2023-04-24T03:26:53.962Z,95.99
2023-04-24T03:29:44.827Z,95.67
2023-04-24T03:32:13.386Z,95.72
2023-04-24T03:34:41.638Z,95.36
2023-04-24T03:37:14.256Z,94.68
2023-04-24T03:39:47.167Z,95.31
2023-04-24T03:42:16.621Z,95.18
2023-04-24T03:44:52.496Z,94.84
2023-04-24T03:47:24.428Z,95.01
2023-04-24T03:49:55.480Z,95.22
2023-04-24T03:52:24.849Z,94.83
2023-04-24T03:54:53.109Z,95.37
2023-04-24T03:57:21.223Z,95.44
2023-04-24T04:00:05.266Z,95.34
2023-04-24T04:02:42.681Z,95.33
2023-04-24T04:05:11.530Z,95.19
2023-04-24T04:07:40.904Z,94.77
2023-04-24T04:10:10.054Z,94.96
2023-04-24T04:12:39.098Z,94.77
2023-04-24T04:15:08.094Z,95.28
2023-04-24T04:17:36.607Z,94.76
2023-04-24T04:20:10.988Z,94.91
2023-04-24T04:22:44.343Z,95.29
2023-04-24T04:25:16.912Z,95.34
2023-04-24T04:27:45.131Z,94.46
2023-04-24T04:30:15.238Z,94.89
2023-04-24T04:32:50.677Z,95.05
2023-04-24T04:35:18.910Z,95.72
2023-04-24T04:37:48.478Z,96.09
2023-04-24T04:40:39.263Z,96.86
2023-04-24T04:43:08.220Z,96.65
2023-04-24T04:45:44.374Z,97.37
2023-04-24T04:48:32.416Z,97.55
2023-04-24T04:51:02.423Z,99.86
2023-04-24T04:53:32.161Z,98.70
2023-04-24T04:56:00.602Z,98.30
2023-04-24T04:58:35.267Z,97.36
2023-04-24T05:01:04.488Z,96.26
2023-04-24T05:03:37.978Z,96.10
2023-04-24T05:06:10.472Z,96.55
2023-04-24T05:08:42.073Z,96.88
2023-04-24T05:11:14.515Z,97.63
2023-04-24T05:13:43.278Z,97.43
2023-04-24T05:16:17.114Z,97.59
2023-04-24T05:18:45.147Z,98.52
2023-04-24T05:21:16.226Z,98.71
2023-04-24T05:23:49.971Z,99.26
2023-04-24T05:26:25.637Z,99.91
2023-04-24T05:28:53.798Z,99.33
2023-04-24T05:31:22.466Z,99.10
2023-04-24T05:33:51.670Z,98.98
2023-04-24T05:36:19.701Z,99.79
2023-04-24T05:38:49.829Z,99.34
2023-04-24T05:41:17.880Z,98.59
2023-04-24T05:43:45.818Z,97.71
2023-04-24T05:46:14.052Z,97.70
2023-04-24T05:48:41.940Z,97.49
2023-04-24T05:51:09.837Z,96.91
2023-04-24T05:53:37.897Z,97.04
2023-04-24T05:56:07.879Z,97.18
2023-04-24T05:58:38.424Z,97.83
2023-04-24T06:01:07.068Z,97.65
2023-04-24T06:03:35.694Z,98.41
2023-04-24T06:06:06.208Z,99.58
2023-04-24T06:08:35.393Z,99.95
2023-04-24T06:11:04.777Z,100.00
2023-04-24T06:13:35.410Z,100.00
2023-04-24T06:16:21.890Z,100.00
2023-04-24T06:18:56.501Z,100.00
2023-04-24T06:21:24.488Z,100.00
2023-04-24T06:23:52.369Z,100.00
2023-04-24T06:26:20.985Z,99.18
2023-04-24T06:28:51.388Z,98.91
2023-04-24T06:31:20.880Z,98.91
2023-04-24T06:33:48.764Z,98.08
2023-04-24T06:36:16.916Z,97.77
2023-04-24T06:38:44.797Z,97.34
2023-04-24T06:41:12.859Z,96.45
2023-04-24T06:43:41.112Z,96.88
2023-04-24T06:46:10.717Z,96.77
2023-04-24T06:48:38.718Z,95.53
2023-04-24T06:51:06.938Z,94.76
2023-04-24T06:53:34.971Z,93.55
2023-04-24T06:56:02.863Z,94.35
2023-04-24T06:58:32.510Z,94.17
2023-04-24T07:01:00.432Z,92.76
2023-04-24T07:03:29.858Z,91.34
2023-04-24T07:05:58.909Z,92.38
2023-04-24T07:08:27.017Z,92.70
2023-04-24T07:10:54.939Z,92.86
2023-04-24T07:13:22.987Z,92.01
2023-04-24T07:15:51.965Z,91.40
2023-04-24T07:18:20.012Z,89.81
2023-04-24T07:20:51.155Z,89.29
2023-04-24T07:23:19.467Z,88.87
2023-04-24T07:25:47.839Z,86.28
2023-04-24T07:28:15.747Z,84.71
2023-04-24T07:30:43.748Z,85.07
2023-04-24T07:33:14.170Z,85.86
2023-04-24T07:35:42.189Z,86.66
2023-04-24T07:38:12.041Z,87.47
2023-04-24T07:40:39.964Z,88.67
2023-04-24T07:43:07.885Z,89.43
2023-04-24T07:45:38.138Z,89.71
2023-04-24T07:48:06.410Z,89.21
2023-04-24T07:50:34.501Z,88.36
2023-04-24T07:53:02.451Z,88.08
2023-04-24T07:55:31.733Z,86.98
2023-04-24T07:57:59.650Z,86.34
2023-04-24T08:00:27.662Z,84.61
2023-04-24T08:02:55.751Z,85.44
2023-04-24T08:05:24.302Z,85.18
2023-04-24T08:07:52.399Z,85.37
2023-04-24T08:10:20.280Z,84.63
2023-04-24T08:12:49.573Z,83.74
2023-04-24T08:15:17.534Z,83.76
2023-04-24T08:17:45.597Z,82.82
2023-04-24T08:20:15.427Z,83.42
2023-04-24T08:22:43.627Z,83.98
2023-04-24T08:25:12.242Z,84.11
2023-04-24T08:27:40.924Z,84.75
2023-04-24T08:30:11.100Z,84.95
2023-04-24T08:32:39.572Z,85.06
2023-04-24T08:35:10.152Z,84.46
2023-04-24T08:37:38.249Z,85.64
2023-04-24T08:40:13.978Z,83.84
2023-04-24T08:42:43.056Z,83.65
2023-04-24T08:45:13.841Z,83.54
2023-04-24T08:47:43.257Z,82.70
2023-04-24T08:50:13.535Z,82.81
2023-04-24T08:52:41.608Z,81.77
2023-04-24T08:55:10.163Z,80.61
2023-04-24T08:57:41.090Z,79.09
2023-04-24T09:00:11.990Z,79.99
2023-04-24T09:02:45.129Z,77.67
2023-04-24T09:05:14.893Z,76.69
2023-04-24T09:07:46.784Z,75.63
2023-04-24T09:10:15.170Z,76.97
2023-04-24T09:12:43.770Z,76.58
2023-04-24T09:15:13.137Z,77.09
2023-04-24T09:17:42.413Z,75.31
2023-04-24T09:20:10.820Z,74.63
2023-04-24T09:22:39.031Z,72.32
2023-04-24T09:25:09.094Z,70.54
2023-04-24T09:27:37.418Z,72.76
2023-04-24T09:30:06.133Z,73.12
2023-04-24T09:32:34.199Z,72.85
2023-04-24T09:35:12.473Z,70.44
2023-04-24T09:37:42.418Z,69.48
2023-04-24T09:40:14.784Z,69.66
2023-04-24T09:42:46.150Z,70.23
2023-04-24T09:45:15.618Z,70.29
2023-04-24T09:47:44.747Z,71.05
2023-04-24T09:50:20.701Z,71.15
2023-04-24T09:53:06.990Z,70.83
2023-04-24T09:55:35.164Z,71.28
2023-04-24T09:58:06.239Z,71.78
2023-04-24T10:00:35.114Z,70.60
2023-04-24T10:03:04.917Z,69.63
2023-04-24T10:05:36.796Z,67.94
2023-04-24T10:08:06.492Z,66.98
2023-04-24T10:10:35.929Z,67.88
2023-04-24T10:13:04.968Z,67.30
2023-04-24T10:15:33.390Z,67.08
2023-04-24T10:18:01.797Z,67.00
2023-04-24T10:20:32.136Z,68.16
2023-04-24T10:23:02.242Z,67.01
2023-04-24T10:25:33.181Z,65.52
2023-04-24T10:28:02.347Z,64.67
2023-04-24T10:30:31.686Z,64.70
2023-04-24T10:32:59.615Z,64.95
2023-04-24T10:35:27.916Z,64.22
2023-04-24T10:37:59.611Z,63.80
2023-04-24T10:40:32.336Z,63.16
2023-04-24T10:43:00.320Z,63.07
2023-04-24T10:45:28.496Z,61.81
2023-04-24T10:48:00.565Z,57.62
2023-04-24T10:50:30.323Z,57.59
2023-04-24T10:53:08.487Z,58.95
2023-04-24T10:55:46.511Z,56.27
2023-04-24T10:58:15.878Z,59.33
2023-04-24T11:00:45.760Z,58.38
2023-04-24T11:03:28.722Z,54.54
2023-04-24T11:06:01.961Z,57.34
2023-04-24T11:08:38.287Z,57.17
2023-04-24T11:11:14.026Z,55.94
2023-04-24T11:14:09.542Z,53.90
2023-04-24T11:16:41.686Z,56.26
2023-04-24T11:19:12.960Z,55.88
2023-04-24T11:21:45.601Z,56.27
2023-04-24T11:24:31.744Z,55.06
2023-04-24T11:27:07.757Z,55.46
2023-04-24T11:29:47.404Z,54.23
2023-04-24T11:32:27.345Z,54.40
2023-04-24T11:34:56.805Z,56.70
2023-04-24T11:37:26.197Z,55.86
2023-04-24T11:39:55.662Z,55.67
2023-04-24T11:42:26.512Z,55.10
2023-04-24T11:44:56.538Z,53.03
2023-04-24T11:47:31.095Z,52.45
2023-04-24T11:50:00.516Z,53.75
2023-04-24T11:52:29.398Z,54.10
2023-04-24T11:54:57.783Z,54.13
2023-04-24T11:57:29.992Z,52.51
2023-04-24T11:59:57.977Z,52.08
2023-04-24T12:02:27.477Z,52.69
2023-04-24T12:04:56.420Z,52.52
2023-04-24T12:07:25.950Z,52.24
2023-04-24T12:09:59.426Z,52.48
2023-04-24T12:12:29.905Z,51.76
2023-04-24T12:14:59.599Z,52.08
2023-04-24T12:17:30.107Z,52.33
2023-04-24T12:20:03.280Z,52.44
2023-04-24T12:22:46.534Z,52.16
2023-04-24T12:25:14.860Z,53.26
2023-04-24T12:27:44.337Z,52.42
2023-04-24T12:30:15.338Z,50.63
2023-04-24T12:32:44.541Z,50.93
2023-04-24T12:35:12.591Z,51.83
2023-04-24T12:37:40.706Z,51.04
2023-04-24T12:40:10.618Z,51.86
2023-04-24T12:42:45.997Z,50.61
2023-04-24T12:45:14.773Z,51.40
2023-04-24T12:47:44.621Z,51.63
2023-04-24T12:50:13.937Z,49.70
2023-04-24T12:52:42.572Z,50.08
2023-04-24T12:55:12.944Z,50.09
2023-04-24T12:57:42.024Z,51.24
2023-04-24T13:00:12.274Z,51.36
2023-04-24T13:02:40.922Z,50.41
2023-04-24T13:05:09.671Z,48.56
2023-04-24T13:07:37.524Z,48.15
2023-04-24T13:10:06.011Z,49.89
2023-04-24T13:12:34.058Z,51.27
2023-04-24T13:15:01.991Z,50.74
2023-04-24T13:17:31.752Z,49.60
2023-04-24T13:19:59.677Z,49.90
2023-04-24T13:22:28.303Z,49.50
2023-04-24T13:24:57.243Z,50.59
2023-04-24T13:27:25.195Z,50.31
2023-04-24T13:29:53.269Z,50.11
2023-04-24T13:32:21.323Z,50.65
2023-04-24T13:34:50.856Z,50.36
2023-04-24T13:37:18.902Z,50.59
2023-04-24T13:39:46.789Z,51.00
2023-04-24T13:42:14.871Z,51.81
2023-04-24T13:44:42.833Z,49.27
2023-04-24T13:47:10.828Z,48.88
2023-04-24T13:49:38.751Z,47.30
2023-04-24T13:52:08.366Z,45.86
2023-04-24T13:54:36.386Z,46.04
2023-04-24T13:57:05.080Z,43.63
2023-04-24T13:59:32.983Z,44.11
2023-04-24T14:02:00.931Z,44.74
2023-04-24T14:04:29.114Z,44.70
2023-04-24T14:06:57.416Z,43.83
2023-04-24T14:09:26.687Z,43.85
2023-04-24T14:11:54.658Z,43.88
2023-04-24T14:14:22.578Z,43.24
2023-04-24T14:16:50.584Z,43.09
2023-04-24T14:19:18.498Z,42.59
2023-04-24T14:21:46.410Z,43.41
2023-04-24T14:24:14.372Z,43.29
2023-04-24T14:26:43.760Z,43.37
2023-04-24T14:29:15.094Z,42.71
2023-04-24T14:31:43.617Z,43.61
2023-04-24T14:34:11.651Z,43.24
2023-04-24T14:36:39.842Z,43.77
2023-04-24T14:39:08.635Z,42.77
2023-04-24T14:41:38.120Z,42.72
2023-04-24T14:44:07.445Z,43.80
2023-04-24T14:46:35.771Z,44.22
2023-04-24T14:49:03.817Z,44.12
2023-04-24T14:51:32.203Z,43.74
2023-04-24T14:54:00.702Z,43.86
2023-04-24T14:56:28.648Z,43.63
2023-04-24T14:58:57.469Z,44.06
2023-04-24T15:01:26.910Z,43.24
2023-04-24T15:03:55.228Z,43.66
2023-04-24T15:06:23.378Z,42.77
2023-04-24T15:08:51.325Z,42.68
2023-04-24T15:11:19.646Z,41.57
2023-04-24T15:13:47.975Z,42.43
2023-04-24T15:16:16.621Z,42.38
2023-04-24T15:18:46.250Z,42.94
2023-04-24T15:21:14.303Z,42.20
2023-04-24T15:23:42.278Z,42.81
2023-04-24T15:26:10.183Z,43.75
2023-04-24T15:28:38.068Z,42.33
2023-04-24T15:31:06.039Z,43.68
2023-04-24T15:33:33.912Z,42.52
2023-04-24T15:36:03.226Z,42.17
2023-04-24T15:38:31.341Z,41.74
2023-04-24T15:40:59.328Z,40.33
2023-04-24T15:43:27.258Z,40.21
2023-04-24T15:45:55.199Z,40.29
2023-04-24T15:48:23.139Z,40.82
2023-04-24T15:50:51.085Z,42.49
2023-04-24T15:53:22.612Z,42.15
2023-04-24T15:55:51.488Z,43.54
2023-04-24T15:58:20.400Z,42.70
2023-04-24T16:00:48.792Z,42.75
2023-04-24T16:03:16.888Z,41.64
2023-04-24T16:05:44.864Z,41.69
2023-04-24T16:08:14.213Z,41.70
2023-04-24T16:10:44.254Z,41.54
2023-04-24T16:13:12.321Z,42.57
2023-04-24T16:15:41.362Z,42.44
2023-04-24T16:18:09.383Z,42.66
2023-04-24T16:20:37.360Z,42.86
2023-04-24T16:23:05.442Z,42.32
2023-04-24T16:25:33.503Z,41.80
2023-04-24T16:28:03.206Z,41.21
2023-04-24T16:30:31.822Z,41.66
2023-04-24T16:32:59.777Z,42.69
2023-04-24T16:35:27.843Z,42.99
2023-04-24T16:37:55.775Z,43.57
2023-04-24T16:40:23.707Z,43.41
2023-04-24T16:42:52.774Z,43.44
2023-04-24T16:45:22.144Z,44.59
2023-04-24T16:47:50.102Z,45.25
2023-04-24T16:50:18.085Z,45.10
2023-04-24T16:52:45.957Z,44.91
2023-04-24T16:55:13.876Z,44.70
2023-04-24T16:57:41.858Z,44.54
2023-04-24T17:00:11.177Z,44.78
2023-04-24T17:02:40.720Z,44.74
2023-04-24T17:05:09.616Z,45.40
2023-04-24T17:07:37.740Z,45.49
2023-04-24T17:10:08.329Z,45.87
2023-04-24T17:12:36.360Z,46.88
2023-04-24T17:15:04.648Z,46.64
2023-04-24T17:17:32.556Z,46.76
2023-04-24T17:20:11.569Z,46.51
2023-04-24T17:22:49.014Z,46.34
2023-04-24T17:25:16.954Z,47.51
2023-04-24T17:27:45.539Z,48.17
2023-04-24T17:30:14.733Z,47.55
2023-04-24T17:32:43.012Z,48.72
2023-04-24T17:35:12.814Z,49.84
2023-04-24T17:37:40.964Z,48.47
2023-04-24T17:40:10.065Z,48.00
2023-04-24T17:42:41.461Z,48.78
2023-04-24T17:45:10.787Z,49.77
2023-04-24T17:47:38.751Z,49.19
2023-04-24T17:50:07.583Z,49.92
2023-04-24T17:52:36.868Z,50.40
2023-04-24T17:55:05.226Z,50.63
2023-04-24T17:57:33.195Z,50.88
2023-04-24T18:00:01.106Z,49.64
2023-04-24T18:02:29.094Z,50.67
2023-04-24T18:04:57.141Z,50.07
2023-04-24T18:07:25.153Z,50.79
2023-04-24T18:09:56.234Z,52.02
2023-04-24T18:12:24.430Z,51.33
2023-04-24T18:14:57.278Z,52.20
2023-04-24T18:17:34.446Z,51.75
2023-04-24T18:20:02.439Z,52.37
2023-04-24T18:22:30.507Z,51.41
2023-04-24T18:24:59.829Z,51.93
2023-04-24T18:27:30.923Z,52.54
2023-04-24T18:29:59.328Z,53.10
2023-04-24T18:32:28.096Z,52.82
2023-04-24T18:34:56.191Z,52.29
2023-04-24T18:37:24.074Z,52.56
2023-04-24T18:39:52.036Z,53.11
2023-04-24T18:42:21.348Z,52.80
2023-04-24T18:44:49.789Z,53.33
2023-04-24T18:47:17.715Z,53.18
2023-04-24T18:49:45.931Z,52.90
2023-04-24T18:52:13.809Z,53.20
2023-04-24T18:54:42.041Z,53.09
2023-04-24T18:57:09.994Z,52.62
2023-04-24T18:59:39.277Z,52.94
2023-04-24T19:02:07.387Z,53.12
2023-04-24T19:04:35.446Z,52.61
2023-04-24T19:07:03.369Z,53.01
2023-04-24T19:09:31.283Z,52.72
2023-04-24T19:12:00.193Z,53.14
2023-04-24T19:14:28.155Z,53.18
2023-04-24T19:16:57.586Z,53.29
2023-04-24T19:19:26.201Z,53.61
2023-04-24T19:21:54.192Z,53.62
2023-04-24T19:24:22.222Z,53.56
2023-04-24T19:26:50.088Z,53.89
2023-04-24T19:29:18.011Z,53.41
2023-04-24T19:31:45.905Z,53.09
2023-04-24T19:34:15.256Z,53.78
2023-04-24T19:36:43.573Z,53.77
2023-04-24T19:39:11.670Z,53.18
2023-04-24T19:41:40.084Z,53.45
2023-04-24T19:44:08.171Z,53.00
2023-04-24T19:46:36.197Z,53.36
2023-04-24T19:49:04.284Z,53.39
2023-04-24T19:51:33.609Z,53.48
2023-04-24T19:54:01.946Z,53.84
2023-04-24T19:56:29.845Z,55.29
2023-04-24T19:58:57.846Z,55.78
2023-04-24T20:01:25.922Z,56.32
2023-04-24T20:03:54.012Z,57.14
2023-04-24T20:06:21.986Z,57.47
2023-04-24T20:08:51.483Z,57.79
2023-04-24T20:11:19.653Z,57.48
2023-04-24T20:13:47.570Z,58.75
2023-04-24T20:16:15.761Z,57.71
2023-04-24T20:18:44.733Z,58.03
2023-04-24T20:21:12.613Z,58.67
2023-04-24T20:23:40.597Z,58.28
2023-04-24T20:26:11.391Z,58.36
2023-04-24T20:28:39.744Z,57.76
2023-04-24T20:31:07.668Z,58.04
2023-04-24T20:33:37.988Z,57.99
2023-04-24T20:36:06.099Z,57.61
2023-04-24T20:38:34.121Z,58.18
2023-04-24T20:41:02.007Z,59.20
2023-04-24T20:43:31.462Z,58.63
2023-04-24T20:45:59.414Z,58.74
2023-04-24T20:48:27.676Z,59.41
2023-04-24T20:50:55.957Z,59.36
2023-04-24T20:53:24.359Z,59.48
2023-04-24T20:55:52.373Z,59.66
2023-04-24T20:58:21.071Z,59.75
2023-04-24T21:00:50.625Z,59.21
2023-04-24T21:03:18.660Z,58.78
2023-04-24T21:05:46.977Z,58.80
2023-04-24T21:08:14.955Z,59.27
2023-04-24T21:10:42.938Z,59.79
2023-04-24T21:13:10.874Z,59.18
2023-04-24T21:15:39.033Z,59.03
2023-04-24T21:18:08.434Z,57.90
2023-04-24T21:20:36.582Z,57.60
2023-04-24T21:23:04.494Z,58.17
2023-04-24T21:25:32.951Z,58.32
2023-04-24T21:28:01.320Z,59.28
2023-04-24T21:30:30.084Z,59.09
2023-04-24T21:32:58.830Z,58.62
2023-04-24T21:35:28.139Z,59.03
2023-04-24T21:37:56.011Z,59.78
2023-04-24T21:40:23.996Z,60.23
2023-04-24T21:42:52.944Z,60.31
2023-04-24T21:45:21.349Z,60.36
2023-04-24T21:47:49.360Z,60.53
2023-04-24T21:50:17.398Z,60.02
2023-04-24T21:52:46.792Z,60.13
2023-04-24T21:55:14.837Z,59.95
2023-04-24T21:57:42.785Z,60.28
2023-04-24T22:00:13.504Z,60.88
2023-04-24T22:02:43.105Z,61.05
2023-04-24T22:05:15.638Z,61.09
2023-04-24T22:07:46.701Z,61.23
2023-04-24T22:10:18.045Z,61.23
2023-04-24T22:12:46.011Z,61.57
2023-04-24T22:15:14.001Z,61.56
2023-04-24T22:17:42.033Z,61.76
2023-04-24T22:20:11.337Z,61.78
2023-04-24T22:22:40.033Z,63.65
2023-04-24T22:25:08.791Z,63.68
2023-04-24T22:27:38.060Z,63.18
2023-04-24T22:30:08.877Z,62.35
2023-04-24T22:32:37.261Z,62.71
2023-04-24T22:35:05.620Z,62.86
2023-04-24T22:37:33.672Z,62.59
2023-04-24T22:40:01.618Z,63.30
2023-04-24T22:42:30.564Z,63.84
2023-04-24T22:44:59.864Z,64.22
2023-04-24T22:47:27.824Z,64.70
2023-04-24T22:49:57.578Z,64.40
2023-04-24T22:52:26.023Z,63.82
2023-04-24T22:54:53.975Z,62.88
2023-04-24T22:57:21.941Z,63.32
2023-04-24T22:59:49.888Z,63.53
2023-04-24T23:02:19.218Z,63.30
2023-04-24T23:04:48.377Z,63.58
2023-04-24T23:07:16.770Z,63.91
2023-04-24T23:09:44.662Z,63.49
2023-04-24T23:12:12.740Z,63.27
2023-04-24T23:14:40.690Z,63.32
2023-04-24T23:17:08.619Z,63.22
2023-04-24T23:19:37.864Z,63.21
2023-04-24T23:22:05.826Z,63.47
2023-04-24T23:24:33.719Z,63.73
2023-04-24T23:27:01.758Z,63.85
2023-04-24T23:29:29.706Z,63.31
2023-04-24T23:31:57.632Z,63.48
2023-04-24T23:34:25.680Z,63.67
2023-04-24T23:36:55.142Z,63.71
2023-04-24T23:39:23.356Z,63.90
2023-04-24T23:41:53.597Z,64.32
2023-04-24T23:44:21.508Z,64.92
2023-04-24T23:46:49.452Z,65.38
2023-04-24T23:49:17.417Z,65.42
2023-04-24T23:51:45.349Z,65.86
2023-04-24T23:54:14.751Z,65.90
2023-04-24T23:56:42.776Z,65.83
2023-04-24T23:59:10.698Z,65.66
